createdAt,value
2019-06-01T00:00:16.209Z,12.83
2019-06-01T00:02:52.212Z,13.07
2019-06-01T00:05:14.667Z,15.07
2019-06-01T00:07:42.957Z,14.63
2019-06-01T00:10:11.071Z,12.70
2019-06-01T00:12:39.391Z,15.90
2019-06-01T00:15:09.198Z,13.23
2019-06-01T00:17:36.651Z,14.67
2019-06-01T00:20:04.224Z,13.77
2019-06-01T00:22:31.589Z,13.63
2019-06-01T00:24:59.415Z,15.23
2019-06-01T00:27:26.915Z,14.00
2019-06-01T00:29:54.763Z,13.40
2019-06-01T00:32:22.223Z,16.90
2019-06-01T00:34:50.090Z,15.27
2019-06-01T00:37:17.447Z,14.30
2019-06-01T00:39:45.832Z,15.23
2019-06-01T00:42:13.205Z,16.10
2019-06-01T00:44:42.092Z,15.73
2019-06-01T00:47:09.498Z,14.67
2019-06-01T00:49:36.894Z,18.83
2019-06-01T00:52:05.307Z,18.83
2019-06-01T00:54:32.932Z,15.40
2019-06-01T00:57:00.407Z,15.20
2019-06-01T00:59:27.956Z,16.57
2019-06-01T01:01:55.927Z,16.10
2019-06-01T01:04:23.275Z,16.93
2019-06-01T01:06:50.903Z,18.93
2019-06-01T01:09:18.355Z,19.57
2019-06-01T01:11:46.938Z,17.77
2019-06-01T01:14:14.528Z,19.50
2019-06-01T01:16:41.890Z,19.60
2019-06-01T01:19:09.247Z,20.83
2019-06-01T01:21:37.115Z,19.67
2019-06-01T01:24:04.578Z,21.57
2019-06-01T01:26:32.136Z,20.43
2019-06-01T01:28:59.591Z,18.37
2019-06-01T01:31:27.354Z,22.63
2019-06-01T01:33:55.503Z,20.57
2019-06-01T01:36:22.985Z,18.33
2019-06-01T01:38:52.074Z,20.87
2019-06-01T01:41:20.066Z,22.93
2019-06-01T01:43:48.441Z,19.30
2019-06-01T01:46:15.868Z,20.70
2019-06-01T01:48:43.250Z,19.73
2019-06-01T01:51:11.112Z,23.80
2019-06-01T01:53:38.680Z,21.83
2019-06-01T01:56:06.082Z,20.23
2019-06-01T01:58:34.197Z,21.27
2019-06-01T02:01:20.795Z,24.53
2019-06-01T02:03:31.548Z,20.90
2019-06-01T02:05:59.170Z,20.57
2019-06-01T02:08:26.688Z,23.30
2019-06-01T02:10:55.409Z,22.30
2019-06-01T02:13:22.983Z,23.87
2019-06-01T02:15:52.097Z,22.17
2019-06-01T02:18:19.561Z,20.90
2019-06-01T02:20:49.318Z,21.43
2019-06-01T02:23:16.669Z,23.23
2019-06-01T02:25:44.228Z,18.90
2019-06-01T02:28:13.529Z,24.50
2019-06-01T02:30:41.290Z,21.60
2019-06-01T02:33:09.028Z,21.30
2019-06-01T02:35:36.620Z,18.83
2019-06-01T02:38:05.694Z,18.20
2019-06-01T02:40:34.983Z,19.60
2019-06-01T02:43:04.257Z,18.70
2019-06-01T02:45:31.680Z,22.10
2019-06-01T02:47:59.551Z,19.23
2019-06-01T02:50:27.810Z,19.20
2019-06-01T02:52:55.556Z,19.90
2019-06-01T02:55:23.340Z,18.43
2019-06-01T02:57:50.896Z,20.77
2019-06-01T03:00:41.272Z,16.33
2019-06-01T03:03:10.237Z,14.90
2019-06-01T03:05:38.876Z,17.10
2019-06-01T03:08:08.192Z,16.07
2019-06-01T03:10:37.469Z,16.83
2019-06-01T03:13:06.412Z,14.37
2019-06-01T03:15:36.486Z,13.60
2019-06-01T03:18:05.611Z,16.07
2019-06-01T03:20:34.277Z,18.03
2019-06-01T03:23:03.777Z,17.77
2019-06-01T03:25:33.378Z,16.20
2019-06-01T03:28:04.136Z,19.60
2019-06-01T03:30:44.850Z,14.03
2019-06-01T03:33:10.594Z,15.60
2019-06-01T03:35:38.565Z,17.20
2019-06-01T03:38:06.966Z,16.10
2019-06-01T03:40:35.116Z,18.20
2019-06-01T03:43:04.284Z,14.87
2019-06-01T03:45:32.178Z,14.83
2019-06-01T03:48:00.514Z,14.00
2019-06-01T03:50:28.657Z,16.23
2019-06-01T03:52:56.351Z,13.80
2019-06-01T03:55:23.773Z,15.10
2019-06-01T03:57:51.113Z,12.60
2019-06-01T04:00:18.970Z,15.17
2019-06-01T04:02:46.457Z,16.53
2019-06-01T04:05:13.989Z,12.53
2019-06-01T04:07:41.660Z,15.70
2019-06-01T04:10:11.777Z,12.30
2019-06-01T04:12:39.541Z,14.77
2019-06-01T04:15:11.591Z,15.60
2019-06-01T04:17:36.710Z,13.00
2019-06-01T04:20:06.000Z,12.07
2019-06-01T04:22:33.781Z,12.83
2019-06-01T04:25:02.040Z,11.83
2019-06-01T04:27:29.612Z,10.83
2019-06-01T04:29:57.730Z,11.67
2019-06-01T04:32:25.051Z,11.87
2019-06-01T04:34:52.500Z,10.13
2019-06-01T04:37:19.856Z,10.83
2019-06-01T04:39:47.727Z,10.30
2019-06-01T04:42:15.187Z,9.93
2019-06-01T04:44:42.973Z,11.43
2019-06-01T04:47:10.791Z,12.07
2019-06-01T04:49:38.879Z,11.03
2019-06-01T04:52:06.792Z,12.60
2019-06-01T04:54:34.603Z,10.33
2019-06-01T04:57:02.279Z,12.43
2019-06-01T04:59:31.116Z,10.27
2019-06-01T05:01:58.739Z,10.47
2019-06-01T05:04:26.087Z,12.43
2019-06-01T05:06:54.192Z,9.57
2019-06-01T05:09:21.813Z,12.13
2019-06-01T05:11:49.275Z,9.23
2019-06-01T05:14:16.798Z,11.87
2019-06-01T05:16:44.295Z,9.00
2019-06-01T05:19:12.280Z,10.43
2019-06-01T05:21:39.768Z,12.67
2019-06-01T05:24:08.730Z,8.93
2019-06-01T05:26:36.371Z,10.87
2019-06-01T05:29:04.039Z,11.63
2019-06-01T05:31:33.820Z,7.97
2019-06-01T05:34:01.242Z,8.13
2019-06-01T05:36:29.372Z,8.20
2019-06-01T05:38:56.731Z,12.23
2019-06-01T05:41:24.241Z,10.60
2019-06-01T05:43:51.740Z,8.50
2019-06-01T05:46:19.818Z,9.27
2019-06-01T05:48:47.273Z,9.67
2019-06-01T05:51:16.867Z,8.50
2019-06-01T05:53:43.928Z,8.40
2019-06-01T05:56:12.721Z,9.23
2019-06-01T05:58:41.397Z,7.43
2019-06-01T06:01:10.299Z,10.07
2019-06-01T06:03:40.798Z,8.00
2019-06-01T06:06:08.409Z,9.00
2019-06-01T06:08:36.247Z,7.40
2019-06-01T06:11:05.444Z,9.47
2019-06-01T06:13:33.074Z,7.10
2019-06-01T06:16:00.646Z,8.63
2019-06-01T06:18:28.126Z,7.43
2019-06-01T06:20:56.299Z,6.50
2019-06-01T06:23:23.656Z,6.70
2019-06-01T06:25:54.534Z,8.13
2019-06-01T06:28:23.224Z,7.00
2019-06-01T06:30:51.467Z,6.77
2019-06-01T06:33:19.372Z,7.77
2019-06-01T06:35:47.104Z,6.60
2019-06-01T06:38:15.673Z,8.63
2019-06-01T06:40:43.810Z,6.30
2019-06-01T06:43:32.957Z,6.80
2019-06-01T06:45:56.552Z,6.23
2019-06-01T06:48:25.289Z,7.40
2019-06-01T06:50:57.425Z,6.97
2019-06-01T06:53:33.514Z,8.27
2019-06-01T06:55:54.129Z,6.27
2019-06-01T06:58:26.661Z,7.33
2019-06-01T07:00:54.075Z,6.47
2019-06-01T07:03:23.103Z,6.13
2019-06-01T07:05:50.731Z,6.23
2019-06-01T07:08:18.114Z,6.20
2019-06-01T07:10:45.621Z,5.80
2019-06-01T07:13:13.519Z,5.87
2019-06-01T07:15:41.281Z,6.57
2019-06-01T07:18:08.632Z,6.60
2019-06-01T07:20:36.279Z,6.83
2019-06-01T07:23:06.635Z,5.93
2019-06-01T07:25:34.091Z,7.17
2019-06-01T07:28:01.735Z,6.90
2019-06-01T07:30:29.266Z,6.27
2019-06-01T07:32:57.262Z,5.77
2019-06-01T07:35:26.877Z,7.30
2019-06-01T07:37:54.238Z,5.43
2019-06-01T07:40:22.950Z,8.87
2019-06-01T07:42:50.791Z,5.80
2019-06-01T07:45:18.762Z,5.00
2019-06-01T07:47:46.535Z,6.33
2019-06-01T07:50:13.982Z,5.80
2019-06-01T07:52:42.669Z,5.87
2019-06-01T07:55:11.595Z,4.80
2019-06-01T07:57:42.955Z,6.23
2019-06-01T08:00:09.447Z,9.07
2019-06-01T08:02:37.349Z,4.70
2019-06-01T08:05:05.395Z,4.50
2019-06-01T08:07:32.851Z,6.07
2019-06-01T08:10:01.767Z,5.83
2019-06-01T08:12:31.665Z,5.50
2019-06-01T08:14:59.430Z,9.17
2019-06-01T08:17:28.115Z,5.37
2019-06-01T08:19:55.683Z,4.47
2019-06-01T08:22:24.463Z,4.60
2019-06-01T08:24:51.971Z,6.03
2019-06-01T08:27:19.934Z,6.53
2019-06-01T08:30:09.495Z,5.63
2019-06-01T08:32:36.870Z,4.90
2019-06-01T08:35:09.197Z,5.87
2019-06-01T08:37:34.223Z,7.10
2019-06-01T08:40:01.502Z,4.70
2019-06-01T08:42:29.601Z,5.63
2019-06-01T08:44:57.635Z,7.57
2019-06-01T08:47:25.670Z,5.83
2019-06-01T08:49:57.334Z,5.23
2019-06-01T08:52:26.294Z,5.80
2019-06-01T08:54:57.158Z,5.50
2019-06-01T08:57:26.109Z,8.03
2019-06-01T08:59:53.754Z,5.27
2019-06-01T09:02:21.373Z,5.03
2019-06-01T09:04:48.767Z,5.00
2019-06-01T09:07:18.287Z,6.90
2019-06-01T09:09:48.525Z,4.67
2019-06-01T09:12:15.950Z,5.60
2019-06-01T09:14:43.813Z,6.07
2019-06-01T09:17:11.376Z,4.67
2019-06-01T09:19:39.766Z,5.00
2019-06-01T09:22:07.763Z,5.70
2019-06-01T09:24:36.747Z,5.47
2019-06-01T09:27:04.405Z,6.63
2019-06-01T09:29:34.000Z,7.27
2019-06-01T09:32:02.071Z,5.47
2019-06-01T09:34:30.486Z,4.20
2019-06-01T09:36:57.846Z,4.73
2019-06-01T09:39:26.602Z,6.13
2019-06-01T09:41:54.571Z,5.33
2019-06-01T09:44:22.246Z,4.77
2019-06-01T09:46:52.423Z,5.53
2019-06-01T09:49:19.820Z,9.43
2019-06-01T09:51:47.428Z,5.43
2019-06-01T09:54:14.830Z,5.80
2019-06-01T09:56:42.197Z,4.83
2019-06-01T09:59:09.616Z,5.90
2019-06-01T10:01:37.044Z,6.03
2019-06-01T10:04:07.640Z,4.60
2019-06-01T10:06:35.311Z,5.03
2019-06-01T10:09:05.948Z,4.50
2019-06-01T10:11:34.314Z,5.40
2019-06-01T10:14:02.086Z,6.60
2019-06-01T10:16:30.620Z,4.27
2019-06-01T10:18:58.021Z,4.53
2019-06-01T10:21:25.387Z,4.47
2019-06-01T10:23:52.637Z,5.30
2019-06-01T10:26:20.505Z,7.27
2019-06-01T10:28:50.024Z,4.90
2019-06-01T10:31:17.781Z,4.40
2019-06-01T10:33:45.235Z,5.10
2019-06-01T10:36:20.558Z,5.43
2019-06-01T10:38:42.518Z,5.57
2019-06-01T10:41:09.867Z,5.83
2019-06-01T10:43:37.701Z,5.80
2019-06-01T10:46:10.268Z,5.43
2019-06-01T10:48:38.069Z,6.50
2019-06-01T10:51:06.848Z,4.77
2019-06-01T10:53:34.848Z,5.03
2019-06-01T10:56:04.052Z,4.70
2019-06-01T10:58:32.225Z,4.87
2019-06-01T11:01:04.993Z,4.50
2019-06-01T11:03:34.603Z,5.50
2019-06-01T11:06:04.252Z,4.40
2019-06-01T11:08:32.825Z,6.55
2019-06-01T11:11:00.269Z,4.53
2019-06-01T11:13:33.035Z,5.33
2019-06-01T11:16:00.512Z,5.40
2019-06-01T11:18:28.273Z,4.67
2019-06-01T11:20:55.631Z,4.53
2019-06-01T11:23:23.152Z,4.63
2019-06-01T11:25:51.581Z,4.50
2019-06-01T11:28:19.035Z,5.05
2019-06-01T11:30:47.006Z,5.50
2019-06-01T11:33:14.357Z,4.83
2019-06-01T11:35:43.422Z,3.95
2019-06-01T11:38:11.318Z,5.97
2019-06-01T11:40:40.827Z,5.03
2019-06-01T11:43:08.285Z,4.80
2019-06-01T11:45:36.624Z,3.70
2019-06-01T11:48:04.530Z,3.90
2019-06-01T11:50:32.005Z,6.35
2019-06-01T11:52:59.453Z,3.87
2019-06-01T11:55:35.141Z,4.10
2019-06-01T11:58:03.550Z,4.30
2019-06-01T12:00:32.868Z,3.90
2019-06-01T12:03:02.197Z,4.40
2019-06-01T12:05:30.061Z,3.67
2019-06-01T12:07:57.418Z,3.45
2019-06-01T12:10:25.850Z,3.42
2019-06-01T12:12:54.480Z,9.20
2019-06-01T12:15:26.425Z,4.17
2019-06-01T12:17:51.958Z,3.52
2019-06-01T12:20:20.232Z,3.60
2019-06-01T12:22:47.998Z,3.50
2019-06-01T12:25:16.538Z,6.47
2019-06-01T12:27:44.260Z,4.00
2019-06-01T12:30:12.918Z,3.72
2019-06-01T12:32:41.795Z,3.22
2019-06-01T12:35:09.347Z,4.78
2019-06-01T12:37:56.169Z,3.92
2019-06-01T12:40:10.858Z,4.20
2019-06-01T12:42:43.996Z,4.58
2019-06-01T12:45:17.125Z,4.90
2019-06-01T12:47:44.596Z,3.77
2019-06-01T12:50:12.166Z,3.90
2019-06-01T12:52:40.358Z,3.80
2019-06-01T12:55:08.610Z,3.87
2019-06-01T12:57:36.068Z,3.83
2019-06-01T13:00:04.692Z,3.40
2019-06-01T13:02:32.005Z,4.05
2019-06-01T13:05:01.005Z,3.80
2019-06-01T13:07:28.453Z,4.47
2019-06-01T13:09:56.043Z,3.10
2019-06-01T13:12:23.374Z,3.58
2019-06-01T13:14:52.194Z,3.25
2019-06-01T13:17:19.925Z,4.12
2019-06-01T13:19:47.443Z,3.10
2019-06-01T13:22:16.028Z,4.78
2019-06-01T13:24:45.883Z,3.45
2019-06-01T13:27:23.040Z,6.03
2019-06-01T13:29:54.555Z,5.25
2019-06-01T13:32:21.996Z,3.83
2019-06-01T13:34:51.422Z,3.47
2019-06-01T13:37:20.491Z,3.67
2019-06-01T13:39:54.598Z,3.20
2019-06-01T13:42:17.036Z,3.42
2019-06-01T13:44:45.413Z,3.58
2019-06-01T13:47:13.307Z,2.90
2019-06-01T13:49:40.571Z,3.85
2019-06-01T13:52:08.019Z,3.17
2019-06-01T13:54:40.110Z,3.45
2019-06-01T13:57:07.448Z,3.45
2019-06-01T13:59:35.023Z,2.92
2019-06-01T14:02:02.377Z,3.37
2019-06-01T14:04:29.669Z,3.25
2019-06-01T14:06:57.491Z,3.25
2019-06-01T14:09:24.970Z,3.02
2019-06-01T14:11:53.511Z,2.95
2019-06-01T14:14:21.103Z,3.67
2019-06-01T14:16:49.524Z,4.00
2019-06-01T14:19:17.043Z,3.02
2019-06-01T14:21:45.744Z,3.58
2019-06-01T14:24:24.570Z,2.80
2019-06-01T14:26:59.982Z,3.80
2019-06-01T14:29:27.725Z,3.10
2019-06-01T14:31:57.130Z,2.85
2019-06-01T14:34:24.856Z,3.17
2019-06-01T14:36:52.791Z,5.05
2019-06-01T14:39:20.552Z,3.65
2019-06-01T14:41:49.016Z,3.33
2019-06-01T14:44:16.410Z,3.62
2019-06-01T14:46:53.418Z,4.00
2019-06-01T14:49:13.355Z,3.75
2019-06-01T14:51:40.799Z,4.12
2019-06-01T14:54:08.478Z,3.60
2019-06-01T14:56:43.649Z,5.25
2019-06-01T14:59:20.614Z,3.42
2019-06-01T15:01:50.004Z,3.92
2019-06-01T15:04:17.562Z,3.27
2019-06-01T15:06:45.422Z,3.58
2019-06-01T15:09:19.110Z,4.35
2019-06-01T15:11:41.982Z,3.08
2019-06-01T15:14:09.947Z,4.80
2019-06-01T15:16:37.415Z,3.20
2019-06-01T15:19:04.880Z,2.98
2019-06-01T15:21:32.373Z,3.35
2019-06-01T15:23:59.855Z,3.22
2019-06-01T15:26:28.698Z,3.00
2019-06-01T15:28:57.075Z,3.00
2019-06-01T15:31:25.187Z,3.60
2019-06-01T15:33:53.210Z,3.87
2019-06-01T15:36:21.255Z,3.87
2019-06-01T15:38:48.731Z,3.85
2019-06-01T15:41:16.287Z,5.10
2019-06-01T15:43:44.032Z,3.67
2019-06-01T15:46:13.400Z,4.10
2019-06-01T15:48:40.820Z,3.33
2019-06-01T15:51:08.177Z,3.80
2019-06-01T15:53:35.573Z,5.27
2019-06-01T15:56:03.526Z,3.13
2019-06-01T15:58:32.801Z,2.93
2019-06-01T16:01:00.978Z,3.07
2019-06-01T16:03:28.838Z,4.03
2019-06-01T16:05:59.152Z,5.47
2019-06-01T16:08:26.763Z,3.60
2019-06-01T16:10:55.209Z,3.40
2019-06-01T16:13:22.687Z,3.77
2019-06-01T16:15:50.097Z,5.20
2019-06-01T16:18:17.580Z,2.90
2019-06-01T16:20:45.959Z,2.97
2019-06-01T16:23:15.775Z,3.73
2019-06-01T16:25:48.208Z,3.77
2019-06-01T16:28:13.314Z,4.53
2019-06-01T16:30:40.703Z,3.50
2019-06-01T16:33:11.549Z,5.33
2019-06-01T16:35:39.110Z,3.40
2019-06-01T16:38:06.616Z,3.80
2019-06-01T16:40:34.219Z,3.67
2019-06-01T16:43:01.692Z,3.47
2019-06-01T16:45:29.441Z,3.73
2019-06-01T16:47:57.445Z,3.43
2019-06-01T16:50:24.880Z,3.47
2019-06-01T16:52:52.351Z,4.07
2019-06-01T16:55:21.455Z,3.57
2019-06-01T16:57:48.903Z,3.40
2019-06-01T17:00:16.682Z,3.37
2019-06-01T17:02:44.271Z,3.30
2019-06-01T17:05:12.683Z,3.60
2019-06-01T17:07:40.368Z,3.20
2019-06-01T17:10:24.580Z,3.20
2019-06-01T17:12:43.062Z,3.17
2019-06-01T17:15:09.753Z,3.17
2019-06-01T17:17:37.264Z,3.50
2019-06-01T17:20:07.277Z,3.60
2019-06-01T17:22:37.196Z,3.43
2019-06-01T17:25:06.114Z,3.93
2019-06-01T17:27:33.649Z,3.17
2019-06-01T17:30:06.156Z,3.33
2019-06-01T17:32:30.816Z,3.90
2019-06-01T17:34:58.608Z,3.57
2019-06-01T17:37:26.040Z,3.70
2019-06-01T17:39:56.048Z,3.60
2019-06-01T17:42:23.731Z,3.47
2019-06-01T17:44:51.233Z,3.80
2019-06-01T17:47:18.539Z,8.10
2019-06-01T17:49:45.888Z,4.00
2019-06-01T17:52:13.668Z,2.93
2019-06-01T17:54:41.733Z,3.17
2019-06-01T17:57:09.680Z,3.53
2019-06-01T17:59:37.260Z,3.53
2019-06-01T18:02:05.791Z,3.30
2019-06-01T18:04:33.813Z,3.30
2019-06-01T18:07:01.810Z,2.93
2019-06-01T18:09:29.466Z,2.83
2019-06-01T18:11:57.012Z,3.80
2019-06-01T18:14:26.318Z,3.27
2019-06-01T18:16:54.075Z,3.03
2019-06-01T18:19:21.602Z,3.27
2019-06-01T18:21:49.097Z,3.50
2019-06-01T18:24:17.449Z,3.63
2019-06-01T18:26:44.827Z,3.90
2019-06-01T18:29:12.736Z,3.97
2019-06-01T18:31:41.092Z,3.97
2019-06-01T18:34:09.695Z,3.60
2019-06-01T18:36:38.100Z,3.73
2019-06-01T18:39:07.603Z,4.23
2019-06-01T18:41:35.417Z,3.27
2019-06-01T18:44:03.586Z,3.20
2019-06-01T18:46:31.157Z,4.80
2019-06-01T18:48:59.025Z,3.53
2019-06-01T18:51:26.785Z,4.10
2019-06-01T18:53:54.450Z,6.30
2019-06-01T18:56:22.017Z,4.30
2019-06-01T18:58:49.941Z,4.03
2019-06-01T19:01:20.964Z,3.27
2019-06-01T19:03:48.582Z,4.80
2019-06-01T19:06:16.053Z,3.30
2019-06-01T19:08:44.109Z,3.60
2019-06-01T19:11:28.304Z,3.73
2019-06-01T19:13:40.965Z,2.87
2019-06-01T19:16:08.290Z,5.67
2019-06-01T19:18:35.800Z,4.00
2019-06-01T19:21:03.523Z,4.00
2019-06-01T19:23:31.001Z,3.87
2019-06-01T19:25:58.856Z,7.10
2019-06-01T19:28:28.325Z,3.70
2019-06-01T19:30:55.838Z,4.07
2019-06-01T19:33:23.810Z,6.07
2019-06-01T19:35:52.585Z,3.80
2019-06-01T19:38:20.633Z,4.90
2019-06-01T19:40:48.218Z,4.73
2019-06-01T19:43:17.659Z,4.77
2019-06-01T19:45:45.694Z,4.70
2019-06-01T19:48:14.558Z,5.80
2019-06-01T19:50:42.250Z,22.23
2019-06-01T19:53:10.587Z,52.07
2019-06-01T19:55:38.753Z,28.10
2019-06-01T19:58:06.458Z,13.53
2019-06-01T20:00:34.191Z,15.77
2019-06-01T20:03:01.790Z,11.47
2019-06-01T20:05:29.646Z,11.70
2019-06-01T20:07:57.062Z,13.60
2019-06-01T20:10:24.586Z,8.40
2019-06-01T20:12:52.042Z,12.00
2019-06-01T20:15:21.206Z,10.87
2019-06-01T20:17:50.226Z,11.80
2019-06-01T20:20:24.287Z,12.63
2019-06-01T20:22:51.841Z,8.50
2019-06-01T20:25:19.877Z,10.83
2019-06-01T20:27:47.696Z,8.87
2019-06-01T20:30:15.872Z,12.73
2019-06-01T20:32:43.675Z,8.73
2019-06-01T20:35:12.282Z,10.17
2019-06-01T20:37:39.822Z,11.40
2019-06-01T20:40:08.926Z,9.33
2019-06-01T20:42:36.484Z,9.20
2019-06-01T20:45:07.728Z,10.47
2019-06-01T20:47:35.498Z,11.50
2019-06-01T20:50:05.212Z,9.50
2019-06-01T20:52:32.563Z,11.30
2019-06-01T20:55:00.019Z,10.53
2019-06-01T20:57:27.959Z,10.10
2019-06-01T20:59:57.126Z,9.60
2019-06-01T21:02:24.551Z,10.37
2019-06-01T21:04:53.511Z,18.40
2019-06-01T21:07:21.883Z,10.40
2019-06-01T21:09:49.499Z,13.00
2019-06-01T21:12:18.775Z,13.13
2019-06-01T21:14:46.355Z,11.27
2019-06-01T21:17:16.364Z,10.90
2019-06-01T21:19:44.140Z,11.13
2019-06-01T21:22:12.007Z,12.70
2019-06-01T21:24:39.671Z,11.40
2019-06-01T21:27:06.971Z,10.67
2019-06-01T21:29:34.487Z,12.03
2019-06-01T21:32:02.486Z,15.30
2019-06-01T21:34:29.995Z,13.20
2019-06-01T21:36:58.468Z,10.07
2019-06-01T21:39:25.953Z,12.57
2019-06-01T21:41:53.734Z,11.37
2019-06-01T21:44:21.667Z,12.40
2019-06-01T21:46:49.051Z,12.93
2019-06-01T21:49:17.564Z,12.93
2019-06-01T21:51:46.018Z,12.37
2019-06-01T21:54:13.571Z,10.90
2019-06-01T21:56:41.127Z,12.13
2019-06-01T21:59:08.482Z,12.10
2019-06-01T22:01:39.732Z,12.17
2019-06-01T22:04:07.283Z,18.07
2019-06-01T22:06:34.751Z,15.97
2019-06-01T22:09:03.175Z,14.83
2019-06-01T22:11:30.568Z,14.70
2019-06-01T22:13:59.714Z,15.73
2019-06-01T22:16:27.926Z,13.20
2019-06-01T22:18:55.454Z,18.57
2019-06-01T22:21:23.831Z,16.07
2019-06-01T22:23:51.352Z,16.00
2019-06-01T22:26:19.865Z,15.60
2019-06-01T22:28:48.616Z,14.27
2019-06-01T22:31:16.064Z,11.67
2019-06-01T22:33:43.440Z,13.93
2019-06-01T22:36:11.408Z,12.40
2019-06-01T22:38:38.964Z,11.53
2019-06-01T22:41:07.754Z,14.03
2019-06-01T22:43:45.726Z,11.87
2019-06-01T22:46:05.335Z,11.67
2019-06-01T22:48:32.971Z,11.03
2019-06-01T22:51:02.099Z,12.33
2019-06-01T22:53:30.141Z,11.53
2019-06-01T22:55:57.632Z,12.20
2019-06-01T22:58:25.322Z,11.27
2019-06-01T23:00:52.857Z,14.47
2019-06-01T23:03:21.820Z,12.80
2019-06-01T23:05:49.492Z,11.83
2019-06-01T23:08:16.745Z,10.50
2019-06-01T23:10:44.837Z,12.10
2019-06-01T23:13:12.292Z,13.43
2019-06-01T23:15:39.854Z,12.20
2019-06-01T23:18:07.287Z,12.00
2019-06-01T23:20:35.086Z,11.60
2019-06-01T23:23:02.395Z,12.10
2019-06-01T23:25:30.767Z,12.47
2019-06-01T23:27:58.384Z,11.83
2019-06-01T23:30:26.548Z,13.37
2019-06-01T23:32:54.512Z,12.50
2019-06-01T23:35:22.909Z,14.13
2019-06-01T23:37:50.369Z,13.97
2019-06-01T23:40:19.660Z,12.37
2019-06-01T23:42:47.125Z,13.17
2019-06-01T23:45:17.038Z,14.03
2019-06-01T23:47:45.012Z,13.17
2019-06-01T23:50:15.221Z,13.13
2019-06-01T23:52:48.072Z,13.23
2019-06-01T23:55:15.674Z,13.53
2019-06-01T23:57:44.688Z,14.87
